Airfield :
LOGIN :

Register | Disclaimer

   EN    FR    IT 

 










Legend :    VFR   Marginal VFR   IFR   Intensive IFR   Very Intensive IFR
Visi :
Ceiling :
>= 8 km
>= 3000ft
5 to 8 km
1000 to 3000 ft
1500m to 5 km
500 to 1000 ft
800 to 1500m
200 to 500 ft
< 800m
< 200 ft
Symbols :   Thunderstorms  Fog  Heavy snow  Heavy precipitations  Wind > 20 kt
SIGMETs :     Misc.  Thunderstorms  Icing  Turbulence  Mountain Waves  Volcanic Ashes






- Airport Elevation : 197 ft
- IATA code : XOG


LFMO - Orange

CURRENT METAR :
  • 160930Z AUTO 15014KT 9999 FEW038 BKN046 OVC054 15/09 Q1014 TEMPO 16015G30KT

EXPIRED METARs :
  • 160900Z AUTO 14015KT 110V170 9999 OVC052 15/09 Q1014 BECMG 16010G20KT
  • 160830Z AUTO 14014KT 9999 OVC049 14/09 Q1014 NOSIG
  • 160800Z AUTO 14015G26KT 9999 BKN050 OVC062 15/09 Q1014 NOSIG
  • 160730Z AUTO 15017KT 9999 FEW040 BKN050 BKN062 15/09 Q1014 BECMG 15015G25KT
  • 160700Z AUTO 15012KT 9999 BKN035 BKN046 OVC056 14/09 Q1014 BECMG 15015G25KT BKN014

TAF TAF LFMO
Valid from the 16 at 09:00 until the 17 at 09:00 UTC


160800Z 1609/1709 16010G20KT 9999 BKN050
TEMPO 1611/1615 16015G30KT
TEMPO 1700/1706 16015G30KT



MET'MAP, your aeronautical weather chart ! - Copyright ORBIFLY December 2007 - Disclaimer

ORBIFLY MET'MAP TEAM :

Programming & Development : Alexandra Zaïnal
Concept & original design : Baudouin d'Aumeries
Assistance for programming : Marc-Olivier Méhu
Technical & hardware support : Manuel Goepfert

Contact : metmap@orbifly.com




SOURCES & CREDITS :

   NOAA